createdAt,value
2018-05-07T00:00:24.477Z,16.13
2018-05-07T00:01:24.454Z,16.08
2018-05-07T00:02:24.428Z,16.03
2018-05-07T00:03:24.406Z,15.87
2018-05-07T00:04:24.380Z,15.70
2018-05-07T00:05:24.349Z,15.66
2018-05-07T00:06:24.355Z,15.63
2018-05-07T00:07:24.299Z,15.66
2018-05-07T00:08:24.270Z,15.62
2018-05-07T00:09:24.252Z,15.54
2018-05-07T00:10:24.224Z,15.43
2018-05-07T00:11:24.192Z,15.51
2018-05-07T00:12:24.172Z,15.60
2018-05-07T00:13:24.166Z,15.72
2018-05-07T00:14:24.125Z,15.73
2018-05-07T00:15:24.099Z,15.72
2018-05-07T00:16:24.074Z,15.78
2018-05-07T00:17:24.049Z,15.78
2018-05-07T00:18:24.017Z,15.83
2018-05-07T00:19:23.989Z,15.87
2018-05-07T00:20:23.966Z,15.83
2018-05-07T00:21:23.948Z,15.90
2018-05-07T00:22:23.919Z,15.83
2018-05-07T00:23:23.894Z,15.84
2018-05-07T00:24:23.867Z,15.81
2018-05-07T00:25:23.835Z,15.81
2018-05-07T00:26:23.812Z,15.87
2018-05-07T00:27:23.797Z,15.78
2018-05-07T00:28:23.867Z,15.70
2018-05-07T00:29:23.735Z,15.84
2018-05-07T00:30:23.713Z,15.81
2018-05-07T00:31:23.699Z,15.73
2018-05-07T00:32:23.661Z,15.65
2018-05-07T00:33:23.664Z,15.60
2018-05-07T00:34:23.616Z,15.66
2018-05-07T00:35:23.589Z,15.66
2018-05-07T00:36:23.565Z,15.63
2018-05-07T00:37:23.537Z,15.63
2018-05-07T00:38:23.508Z,15.70
2018-05-07T00:39:23.481Z,15.69
2018-05-07T00:40:23.454Z,15.72
2018-05-07T00:41:23.437Z,15.60
2018-05-07T00:42:23.410Z,15.76
2018-05-07T00:43:23.382Z,15.70
2018-05-07T00:44:23.351Z,15.70
2018-05-07T00:45:23.333Z,15.80
2018-05-07T00:46:23.299Z,15.72
2018-05-07T00:47:23.275Z,15.81
2018-05-07T00:48:23.254Z,15.77
2018-05-07T00:49:23.219Z,15.58
2018-05-07T00:50:23.196Z,15.58
2018-05-07T00:51:23.172Z,15.45
2018-05-07T00:52:23.142Z,15.41
2018-05-07T00:53:23.123Z,15.33
2018-05-07T00:54:23.104Z,15.45
2018-05-07T00:55:23.077Z,15.25
2018-05-07T00:56:23.050Z,15.20
2018-05-07T00:57:23.015Z,15.20
2018-05-07T00:58:22.995Z,15.14
2018-05-07T00:59:22.970Z,15.10
2018-05-07T01:00:22.942Z,15.01
2018-05-07T01:01:22.923Z,15.14
2018-05-07T01:02:22.886Z,15.05
2018-05-07T01:03:22.863Z,15.04
2018-05-07T01:04:22.834Z,15.04
2018-05-07T01:05:22.814Z,14.97
2018-05-07T01:06:22.784Z,14.96
2018-05-07T01:07:22.763Z,15.01
2018-05-07T01:08:22.763Z,15.04
2018-05-07T01:09:22.704Z,15.07
2018-05-07T01:10:22.674Z,15.03
2018-05-07T01:11:22.650Z,14.86
2018-05-07T01:12:22.623Z,14.73
2018-05-07T01:13:22.605Z,14.79
2018-05-07T01:14:22.580Z,14.74
2018-05-07T01:15:22.551Z,14.61
2018-05-07T01:16:22.522Z,14.61
2018-05-07T01:17:22.502Z,14.61
2018-05-07T01:18:22.472Z,14.73
2018-05-07T01:19:22.446Z,14.67
2018-05-07T01:20:22.421Z,14.58
2018-05-07T01:21:22.391Z,14.56
2018-05-07T01:22:22.400Z,14.51
2018-05-07T01:23:22.340Z,14.40
2018-05-07T01:24:22.310Z,14.44
2018-05-07T01:25:22.292Z,14.45
2018-05-07T01:26:22.266Z,14.37
2018-05-07T01:27:22.246Z,14.27
2018-05-07T01:28:22.216Z,14.30
2018-05-07T01:29:22.184Z,14.26
2018-05-07T01:30:22.158Z,14.28
2018-05-07T01:31:22.131Z,14.23
2018-05-07T01:32:22.110Z,14.30
2018-05-07T01:33:22.074Z,14.27
2018-05-07T01:34:22.052Z,14.27
2018-05-07T01:35:22.027Z,14.30
2018-05-07T01:36:21.998Z,14.27
2018-05-07T01:37:21.982Z,14.30
2018-05-07T01:38:21.945Z,14.23
2018-05-07T01:39:21.922Z,14.23
2018-05-07T01:40:21.894Z,14.12
2018-05-07T01:41:21.864Z,14.15
2018-05-07T01:42:21.838Z,14.04
2018-05-07T01:43:21.827Z,13.94
2018-05-07T01:44:21.785Z,13.96
2018-05-07T01:45:21.764Z,13.98
2018-05-07T01:46:21.742Z,14.04
2018-05-07T01:47:21.712Z,14.05
2018-05-07T01:48:21.679Z,14.08
2018-05-07T01:49:21.660Z,14.03
2018-05-07T01:50:21.637Z,14.05
2018-05-07T01:51:21.603Z,14.01
2018-05-07T01:52:21.579Z,14.01
2018-05-07T01:53:21.544Z,14.09
2018-05-07T01:54:21.519Z,14.09
2018-05-07T01:55:21.496Z,14.01
2018-05-07T01:56:21.473Z,13.91
2018-05-07T01:57:21.440Z,13.90
2018-05-07T01:58:21.412Z,13.93
2018-05-07T01:59:21.391Z,13.96
2018-05-07T02:00:21.408Z,13.91
2018-05-07T02:01:21.338Z,14.09
2018-05-07T02:02:21.311Z,14.08
2018-05-07T02:03:21.282Z,14.00
2018-05-07T02:04:21.250Z,14.00
2018-05-07T02:05:21.236Z,14.01
2018-05-07T02:06:21.210Z,13.91
2018-05-07T02:07:21.179Z,13.94
2018-05-07T02:08:21.154Z,13.96
2018-05-07T02:09:21.122Z,13.94
2018-05-07T02:10:21.093Z,13.94
2018-05-07T02:11:21.069Z,13.94
2018-05-07T02:12:21.040Z,13.90
2018-05-07T02:13:21.026Z,13.98
2018-05-07T02:14:20.997Z,14.05
2018-05-07T02:15:20.963Z,14.05
2018-05-07T02:16:20.943Z,14.11
2018-05-07T02:17:20.905Z,14.16
2018-05-07T02:18:20.890Z,14.00
2018-05-07T02:19:20.859Z,14.05
2018-05-07T02:20:20.835Z,13.93
2018-05-07T02:21:20.799Z,13.90
2018-05-07T02:22:20.776Z,13.90
2018-05-07T02:23:20.754Z,13.94
2018-05-07T02:24:20.724Z,13.85
2018-05-07T02:25:20.700Z,13.90
2018-05-07T02:26:20.672Z,13.86
2018-05-07T02:27:20.645Z,13.79
2018-05-07T02:28:20.622Z,13.96
2018-05-07T02:29:20.590Z,13.90
2018-05-07T02:30:20.561Z,13.80
2018-05-07T02:31:20.547Z,13.93
2018-05-07T02:32:20.507Z,13.96
2018-05-07T02:33:20.487Z,13.90
2018-05-07T02:34:20.458Z,13.78
2018-05-07T02:35:20.427Z,13.85
2018-05-07T02:36:20.402Z,13.88
2018-05-07T02:37:20.392Z,13.78
2018-05-07T02:38:20.352Z,13.79
2018-05-07T02:39:20.325Z,13.64
2018-05-07T02:40:20.303Z,13.65
2018-05-07T02:41:20.262Z,13.63
2018-05-07T02:42:20.239Z,13.64
2018-05-07T02:43:20.212Z,13.63
2018-05-07T02:44:20.198Z,13.58
2018-05-07T02:45:20.165Z,13.55
2018-05-07T02:46:20.131Z,13.46
2018-05-07T02:47:20.107Z,13.54
2018-05-07T02:48:20.083Z,13.49
2018-05-07T02:49:20.049Z,13.64
2018-05-07T02:50:20.028Z,13.60
2018-05-07T02:51:19.995Z,13.51
2018-05-07T02:52:19.975Z,13.46
2018-05-07T02:53:19.941Z,13.61
2018-05-07T02:54:19.926Z,13.49
2018-05-07T02:55:19.892Z,13.53
2018-05-07T02:56:19.861Z,13.51
2018-05-07T02:57:19.838Z,13.65
2018-05-07T02:58:19.806Z,13.72
2018-05-07T02:59:19.782Z,13.79
2018-05-07T03:00:19.760Z,13.79
2018-05-07T03:01:19.721Z,13.68
2018-05-07T03:02:19.701Z,13.72
2018-05-07T03:03:19.673Z,13.67
2018-05-07T03:04:19.660Z,13.79
2018-05-07T03:05:19.629Z,13.78
2018-05-07T03:06:19.597Z,13.75
2018-05-07T03:07:19.562Z,13.72
2018-05-07T03:08:19.534Z,13.71
2018-05-07T03:09:19.514Z,13.72
2018-05-07T03:10:19.485Z,13.68
2018-05-07T03:11:19.459Z,13.72
2018-05-07T03:12:19.433Z,13.61
2018-05-07T03:13:19.404Z,13.64
2018-05-07T03:14:19.374Z,13.78
2018-05-07T03:15:19.348Z,13.76
2018-05-07T03:16:19.319Z,13.75
2018-05-07T03:17:19.301Z,13.72
2018-05-07T03:18:19.266Z,13.75
2018-05-07T03:19:19.241Z,13.71
2018-05-07T03:20:19.220Z,13.78
2018-05-07T03:21:19.182Z,13.80
2018-05-07T03:22:19.164Z,13.75
2018-05-07T03:23:19.136Z,13.82
2018-05-07T03:24:19.115Z,13.75
2018-05-07T03:25:19.077Z,13.75
2018-05-07T03:26:19.054Z,13.85
2018-05-07T03:27:19.020Z,13.82
2018-05-07T03:28:19.006Z,13.73
2018-05-07T03:29:18.973Z,13.72
2018-05-07T03:30:18.941Z,13.75
2018-05-07T03:31:18.920Z,13.78
2018-05-07T03:32:18.896Z,13.72
2018-05-07T03:33:18.862Z,13.78
2018-05-07T03:34:18.831Z,13.68
2018-05-07T03:35:18.809Z,13.76
2018-05-07T03:36:18.798Z,13.73
2018-05-07T03:37:18.758Z,13.65
2018-05-07T03:38:18.728Z,13.61
2018-05-07T03:39:18.697Z,13.67
2018-05-07T03:40:18.679Z,13.71
2018-05-07T03:41:18.647Z,13.67
2018-05-07T03:42:18.618Z,13.72
2018-05-07T03:43:18.589Z,13.72
2018-05-07T03:44:18.567Z,13.71
2018-05-07T03:45:18.553Z,13.71
2018-05-07T03:46:18.506Z,13.63
2018-05-07T03:47:18.481Z,13.72
2018-05-07T03:48:18.448Z,13.65
2018-05-07T03:49:18.438Z,13.61
2018-05-07T03:50:18.403Z,13.61
2018-05-07T03:51:18.377Z,13.65
2018-05-07T03:52:18.351Z,13.49
2018-05-07T03:53:18.319Z,13.67
2018-05-07T03:54:18.294Z,13.60
2018-05-07T03:55:18.264Z,13.54
2018-05-07T03:56:18.240Z,13.54
2018-05-07T03:57:18.204Z,13.51
2018-05-07T03:58:18.180Z,13.49
2018-05-07T03:59:18.160Z,13.42
2018-05-07T04:00:18.129Z,13.42
2018-05-07T04:01:18.103Z,13.38
2018-05-07T04:02:18.076Z,13.38
2018-05-07T04:03:18.052Z,13.32
2018-05-07T04:04:18.027Z,13.38
2018-05-07T04:05:17.990Z,13.26
2018-05-07T04:06:17.961Z,13.35
2018-05-07T04:07:17.967Z,13.43
2018-05-07T04:08:17.909Z,13.30
2018-05-07T04:09:17.882Z,13.29
2018-05-07T04:10:17.862Z,13.27
2018-05-07T04:11:17.826Z,13.19
2018-05-07T04:12:17.799Z,13.20
2018-05-07T04:13:17.790Z,13.20
2018-05-07T04:14:17.746Z,13.32
2018-05-07T04:15:17.718Z,13.26
2018-05-07T04:16:17.694Z,13.20
2018-05-07T04:17:17.660Z,13.17
2018-05-07T04:18:17.638Z,13.16
2018-05-07T04:19:17.607Z,13.19
2018-05-07T04:20:17.582Z,13.14
2018-05-07T04:21:17.559Z,13.06
2018-05-07T04:22:17.527Z,12.99
2018-05-07T04:23:17.501Z,12.91
2018-05-07T04:24:17.477Z,12.88
2018-05-07T04:25:17.439Z,12.90
2018-05-07T04:26:17.414Z,12.90
2018-05-07T04:27:17.391Z,12.83
2018-05-07T04:28:17.366Z,12.87
2018-05-07T04:29:17.333Z,12.73
2018-05-07T04:30:17.313Z,12.87
2018-05-07T04:31:17.278Z,12.86
2018-05-07T04:32:17.258Z,12.96
2018-05-07T04:33:17.231Z,12.91
2018-05-07T04:34:17.199Z,12.98
2018-05-07T04:35:17.173Z,13.05
2018-05-07T04:36:17.149Z,13.04
2018-05-07T04:37:17.120Z,13.09
2018-05-07T04:38:17.084Z,13.20
2018-05-07T04:39:17.065Z,13.16
2018-05-07T04:40:17.110Z,13.14
2018-05-07T04:41:17.017Z,13.29
2018-05-07T04:42:16.985Z,13.23
2018-05-07T04:43:17.001Z,13.42
2018-05-07T04:44:16.923Z,13.36
2018-05-07T04:45:16.902Z,13.38
2018-05-07T04:46:16.875Z,13.55
2018-05-07T04:47:16.852Z,13.54
2018-05-07T04:48:16.823Z,13.51
2018-05-07T04:49:16.786Z,13.61
2018-05-07T04:50:16.757Z,13.53
2018-05-07T04:51:16.730Z,13.61
2018-05-07T04:52:16.708Z,13.68
2018-05-07T04:53:16.699Z,13.75
2018-05-07T04:54:16.656Z,13.71
2018-05-07T04:55:16.638Z,13.67
2018-05-07T04:56:16.603Z,13.79
2018-05-07T04:57:16.580Z,13.86
2018-05-07T04:58:16.538Z,13.85
2018-05-07T04:59:16.524Z,13.96
2018-05-07T05:00:16.546Z,13.93
2018-05-07T05:01:16.462Z,14.03
2018-05-07T05:02:16.431Z,13.97
2018-05-07T05:03:16.402Z,14.01
2018-05-07T05:04:16.382Z,14.08
2018-05-07T05:05:16.357Z,14.03
2018-05-07T05:06:16.397Z,14.11
2018-05-07T05:07:16.352Z,14.08
2018-05-07T05:08:16.283Z,14.04
2018-05-07T05:09:16.259Z,14.04
2018-05-07T05:10:16.215Z,14.12
2018-05-07T05:11:16.199Z,14.09
2018-05-07T05:12:16.169Z,14.16
2018-05-07T05:13:16.140Z,14.12
2018-05-07T05:14:16.122Z,14.16
2018-05-07T05:15:16.080Z,14.26
2018-05-07T05:16:16.058Z,14.23
2018-05-07T05:17:16.034Z,14.28
2018-05-07T05:18:16.057Z,14.27
2018-05-07T05:19:16.080Z,14.37
2018-05-07T05:20:15.993Z,14.28
2018-05-07T05:21:16.077Z,14.28
2018-05-07T05:22:15.893Z,14.31
2018-05-07T05:23:15.868Z,14.48
2018-05-07T05:24:15.854Z,14.40
2018-05-07T05:25:15.815Z,14.44
2018-05-07T05:26:15.792Z,14.41
2018-05-07T05:27:15.850Z,14.52
2018-05-07T05:28:15.781Z,14.48
2018-05-07T05:29:15.705Z,14.64
2018-05-07T05:30:15.678Z,14.56
2018-05-07T05:31:15.657Z,14.67
2018-05-07T05:32:15.634Z,14.74
2018-05-07T05:33:15.604Z,14.78
2018-05-07T05:34:15.585Z,14.77
2018-05-07T05:35:15.544Z,14.78
2018-05-07T05:36:17.381Z,14.85
2018-05-07T05:37:15.555Z,14.93
2018-05-07T05:38:15.470Z,14.87
2018-05-07T05:39:15.454Z,14.89
2018-05-07T05:40:15.419Z,14.95
2018-05-07T05:41:15.386Z,14.90
2018-05-07T05:42:15.369Z,15.03
2018-05-07T05:43:15.330Z,15.01
2018-05-07T05:44:15.315Z,15.03
2018-05-07T05:45:15.292Z,15.14
2018-05-07T05:46:15.309Z,15.10
2018-05-07T05:47:15.222Z,15.05
2018-05-07T05:48:15.199Z,15.04
2018-05-07T05:49:15.177Z,15.08
2018-05-07T05:50:15.217Z,15.10
2018-05-07T05:51:15.127Z,15.25
2018-05-07T05:52:15.096Z,15.30
2018-05-07T05:53:15.067Z,15.27
2018-05-07T05:54:15.041Z,15.26
2018-05-07T05:55:15.014Z,15.27
2018-05-07T05:56:15.071Z,15.25
2018-05-07T05:57:14.965Z,15.36
2018-05-07T05:58:14.945Z,15.33
2018-05-07T05:59:14.917Z,15.38
2018-05-07T06:00:14.887Z,15.38
2018-05-07T06:01:14.856Z,15.43
2018-05-07T06:02:14.833Z,15.43
2018-05-07T06:03:14.809Z,15.51
2018-05-07T06:04:14.783Z,15.56
2018-05-07T06:05:14.752Z,15.63
2018-05-07T06:06:14.721Z,15.68
2018-05-07T06:07:14.714Z,15.63
2018-05-07T06:08:14.675Z,15.66
2018-05-07T06:09:14.646Z,15.80
2018-05-07T06:10:14.635Z,15.73
2018-05-07T06:11:14.596Z,15.70
2018-05-07T06:12:14.628Z,15.84
2018-05-07T06:13:14.539Z,15.84
2018-05-07T06:14:14.541Z,15.96
2018-05-07T06:15:14.486Z,15.90
2018-05-07T06:16:14.475Z,15.98
2018-05-07T06:17:14.440Z,15.99
2018-05-07T06:18:14.416Z,15.99
2018-05-07T06:19:14.385Z,15.99
2018-05-07T06:20:14.360Z,16.09
2018-05-07T06:21:14.412Z,16.05
2018-05-07T06:22:14.309Z,16.05
2018-05-07T06:23:14.287Z,16.09
2018-05-07T06:24:14.258Z,16.14
2018-05-07T06:25:14.228Z,16.13
2018-05-07T06:26:14.202Z,16.24
2018-05-07T06:27:14.177Z,16.22
2018-05-07T06:28:14.147Z,16.26
2018-05-07T06:29:14.126Z,16.34
2018-05-07T06:30:14.104Z,16.32
2018-05-07T06:31:14.077Z,16.44
2018-05-07T06:32:14.055Z,16.43
2018-05-07T06:33:14.017Z,16.51
2018-05-07T06:34:14.071Z,16.42
2018-05-07T06:35:13.972Z,16.47
2018-05-07T06:36:13.948Z,16.47
2018-05-07T06:37:13.913Z,16.52
2018-05-07T06:38:13.910Z,16.51
2018-05-07T06:39:13.865Z,16.61
2018-05-07T06:40:13.854Z,16.55
2018-05-07T06:41:13.812Z,16.65
2018-05-07T06:42:13.804Z,16.62
2018-05-07T06:43:13.763Z,16.69
2018-05-07T06:44:13.736Z,16.74
2018-05-07T06:45:13.714Z,16.79
2018-05-07T06:46:13.680Z,16.77
2018-05-07T06:47:13.664Z,16.72
2018-05-07T06:48:13.632Z,16.80
2018-05-07T06:49:13.608Z,16.80
2018-05-07T06:50:13.592Z,16.82
2018-05-07T06:51:13.557Z,16.82
2018-05-07T06:52:13.589Z,16.95
2018-05-07T06:53:13.505Z,16.88
2018-05-07T06:54:13.487Z,16.92
2018-05-07T06:55:13.455Z,16.92
2018-05-07T06:56:13.432Z,16.95
2018-05-07T06:57:13.417Z,17.07
2018-05-07T06:58:13.371Z,17.02
2018-05-07T06:59:13.346Z,17.12
2018-05-07T07:00:13.325Z,17.20
2018-05-07T07:01:13.299Z,17.24
2018-05-07T07:02:13.387Z,17.25
2018-05-07T07:03:13.258Z,17.30
2018-05-07T07:04:13.232Z,17.37
2018-05-07T07:05:13.199Z,17.39
2018-05-07T07:06:13.178Z,17.50
2018-05-07T07:07:13.157Z,17.49
2018-05-07T07:08:13.160Z,17.52
2018-05-07T07:09:13.098Z,17.47
2018-05-07T07:10:13.070Z,17.53
2018-05-07T07:11:13.047Z,17.65
2018-05-07T07:12:13.019Z,17.62
2018-05-07T07:13:12.998Z,17.68
2018-05-07T07:14:12.973Z,17.69
2018-05-07T07:15:12.948Z,17.79
2018-05-07T07:16:12.923Z,17.79
2018-05-07T07:17:12.892Z,17.79
2018-05-07T07:18:12.867Z,17.87
2018-05-07T07:19:12.848Z,17.87
2018-05-07T07:20:12.819Z,17.91
2018-05-07T07:21:12.793Z,17.96
2018-05-07T07:22:12.776Z,17.97
2018-05-07T07:23:12.742Z,17.99
2018-05-07T07:24:12.720Z,18.03
2018-05-07T07:25:12.696Z,18.05
2018-05-07T07:26:12.671Z,18.13
2018-05-07T07:27:12.646Z,18.20
2018-05-07T07:28:12.697Z,18.11
2018-05-07T07:29:12.595Z,18.38
2018-05-07T07:30:12.565Z,18.30
2018-05-07T07:31:12.549Z,18.42
2018-05-07T07:32:12.525Z,18.48
2018-05-07T07:33:12.522Z,18.41
2018-05-07T07:34:12.471Z,18.56
2018-05-07T07:35:12.460Z,18.51
2018-05-07T07:36:12.435Z,18.52
2018-05-07T07:37:12.397Z,18.68
2018-05-07T07:38:12.368Z,18.63
2018-05-07T07:39:12.353Z,18.70
2018-05-07T07:40:12.393Z,18.75
2018-05-07T07:41:12.290Z,18.75
2018-05-07T07:42:12.265Z,18.74
2018-05-07T07:43:12.243Z,18.83
2018-05-07T07:44:12.227Z,18.93
2018-05-07T07:45:12.201Z,18.93
2018-05-07T07:46:12.181Z,18.88
2018-05-07T07:47:12.234Z,18.93
2018-05-07T07:48:12.122Z,18.93
2018-05-07T07:49:12.111Z,18.88
2018-05-07T07:50:12.066Z,19.07
2018-05-07T07:51:12.042Z,19.09
2018-05-07T07:52:12.024Z,19.13
2018-05-07T07:53:12.001Z,19.17
2018-05-07T07:54:11.978Z,19.15
2018-05-07T07:55:11.945Z,19.23
2018-05-07T07:56:11.929Z,19.09
2018-05-07T07:57:11.913Z,19.26
2018-05-07T07:58:11.878Z,19.31
2018-05-07T07:59:11.854Z,19.37
2018-05-07T08:00:11.831Z,19.35
2018-05-07T08:01:11.812Z,19.44
2018-05-07T08:02:11.783Z,19.50
2018-05-07T08:03:11.755Z,19.59
2018-05-07T08:04:11.773Z,19.56
2018-05-07T08:05:11.721Z,19.78
2018-05-07T08:06:11.684Z,19.77
2018-05-07T08:07:11.664Z,19.87
2018-05-07T08:08:11.645Z,19.86
2018-05-07T08:09:11.611Z,20.00
2018-05-07T08:10:11.581Z,19.97
2018-05-07T08:11:11.566Z,20.05
2018-05-07T08:12:11.576Z,20.02
2018-05-07T08:13:13.425Z,20.09
2018-05-07T08:14:11.487Z,20.08
2018-05-07T08:15:11.502Z,20.15
2018-05-07T08:16:11.446Z,20.22
2018-05-07T08:17:11.423Z,20.26
2018-05-07T08:18:11.394Z,20.29
2018-05-07T08:19:12.913Z,20.26
2018-05-07T08:20:11.348Z,20.32
2018-05-07T08:21:11.320Z,20.37
2018-05-07T08:22:11.299Z,20.39
2018-05-07T08:23:11.268Z,20.50
2018-05-07T08:24:11.250Z,20.46
2018-05-07T08:25:11.233Z,20.67
2018-05-07T08:26:11.207Z,20.68
2018-05-07T08:27:11.185Z,20.67
2018-05-07T08:28:11.156Z,20.73
2018-05-07T08:29:11.135Z,20.68
2018-05-07T08:30:11.109Z,20.64
2018-05-07T08:31:11.086Z,20.65
2018-05-07T08:32:11.059Z,20.73
2018-05-07T08:33:11.055Z,20.77
2018-05-07T08:34:11.015Z,20.70
2018-05-07T08:35:11.001Z,20.80
2018-05-07T08:36:10.973Z,20.86
2018-05-07T08:37:10.945Z,20.98
2018-05-07T08:38:10.920Z,21.08
2018-05-07T08:39:10.903Z,21.08
2018-05-07T08:40:10.873Z,21.04
2018-05-07T08:41:10.852Z,21.16
2018-05-07T08:42:10.823Z,21.26
2018-05-07T08:43:10.811Z,21.22
2018-05-07T08:44:10.789Z,21.28
2018-05-07T08:45:10.792Z,21.37
2018-05-07T08:46:10.735Z,21.44
2018-05-07T08:47:10.705Z,21.45
2018-05-07T08:48:10.690Z,21.44
2018-05-07T08:49:10.670Z,21.50
2018-05-07T08:50:10.644Z,21.45
2018-05-07T08:51:10.643Z,21.56
2018-05-07T08:52:10.601Z,21.58
2018-05-07T08:53:10.681Z,21.75
2018-05-07T08:54:10.603Z,21.88
2018-05-07T08:55:10.541Z,21.97
2018-05-07T08:56:10.503Z,21.94
2018-05-07T08:57:10.483Z,22.01
2018-05-07T08:58:10.450Z,22.01
2018-05-07T08:59:10.462Z,22.06
2018-05-07T09:00:10.413Z,22.09
2018-05-07T09:01:10.386Z,22.15
2018-05-07T09:02:10.399Z,22.16
2018-05-07T09:03:10.341Z,22.22
2018-05-07T09:04:10.322Z,22.28
2018-05-07T09:05:10.299Z,22.28
2018-05-07T09:06:10.282Z,22.41
2018-05-07T09:07:10.256Z,22.41
2018-05-07T09:08:10.315Z,22.55
2018-05-07T09:09:10.208Z,22.61
2018-05-07T09:10:10.185Z,22.76
2018-05-07T09:11:10.159Z,22.93
2018-05-07T09:12:10.148Z,22.85
2018-05-07T09:13:10.135Z,22.83
2018-05-07T09:14:10.099Z,22.76
2018-05-07T09:15:10.143Z,22.76
2018-05-07T09:16:10.055Z,22.74
2018-05-07T09:17:10.029Z,22.76
2018-05-07T09:18:10.009Z,22.74
2018-05-07T09:19:09.987Z,22.83
2018-05-07T09:20:09.974Z,22.96
2018-05-07T09:21:09.941Z,23.13
2018-05-07T09:22:09.919Z,22.99
2018-05-07T09:23:09.899Z,23.08
2018-05-07T09:24:09.871Z,23.04
2018-05-07T09:25:09.856Z,23.06
2018-05-07T09:26:09.838Z,23.13
2018-05-07T09:27:09.816Z,23.23
2018-05-07T09:28:09.811Z,23.17
2018-05-07T09:29:09.764Z,23.45
2018-05-07T09:30:09.746Z,23.56
2018-05-07T09:31:09.725Z,23.49
2018-05-07T09:32:09.699Z,23.55
2018-05-07T09:33:09.673Z,23.60
2018-05-07T09:34:09.648Z,23.70
2018-05-07T09:35:09.631Z,23.74
2018-05-07T09:36:09.611Z,23.64
2018-05-07T09:37:09.597Z,23.74
2018-05-07T09:38:09.575Z,23.88
2018-05-07T09:39:09.549Z,23.89
2018-05-07T09:40:09.557Z,23.82
2018-05-07T09:41:09.506Z,23.88
2018-05-07T09:42:09.480Z,24.03
2018-05-07T09:43:09.467Z,24.11
2018-05-07T09:44:09.440Z,24.10
2018-05-07T09:45:09.421Z,24.11
2018-05-07T09:46:09.410Z,24.16
2018-05-07T09:47:09.376Z,24.21
2018-05-07T09:48:09.360Z,24.31
2018-05-07T09:49:09.333Z,24.25
2018-05-07T09:50:09.312Z,24.37
2018-05-07T09:51:09.301Z,24.55
2018-05-07T09:52:09.275Z,24.62
2018-05-07T09:53:09.251Z,24.66
2018-05-07T09:54:09.223Z,24.81
2018-05-07T09:55:09.207Z,24.78
2018-05-07T09:56:09.182Z,24.82
2018-05-07T09:57:09.167Z,24.76
2018-05-07T09:58:09.145Z,24.78
2018-05-07T09:59:09.133Z,24.71
2018-05-07T10:00:09.101Z,24.63
2018-05-07T10:01:09.082Z,24.71
2018-05-07T10:02:09.053Z,24.84
2018-05-07T10:03:09.044Z,24.86
2018-05-07T10:04:09.021Z,24.86
2018-05-07T10:05:08.998Z,24.82
2018-05-07T10:06:08.969Z,24.71
2018-05-07T10:07:08.958Z,24.78
2018-05-07T10:08:08.949Z,24.90
2018-05-07T10:09:08.913Z,24.94
2018-05-07T10:10:08.896Z,25.11
2018-05-07T10:11:08.875Z,25.16
2018-05-07T10:12:08.851Z,25.19
2018-05-07T10:13:08.827Z,25.31
2018-05-07T10:14:08.805Z,25.43
2018-05-07T10:15:08.793Z,25.53
2018-05-07T10:16:08.764Z,25.74
2018-05-07T10:17:08.826Z,25.83
2018-05-07T10:18:08.734Z,25.98
2018-05-07T10:19:08.701Z,25.83
2018-05-07T10:20:08.689Z,25.89
2018-05-07T10:21:08.666Z,25.93
2018-05-07T10:22:08.656Z,25.93
2018-05-07T10:23:08.631Z,25.95
2018-05-07T10:24:08.616Z,25.83
2018-05-07T10:25:08.590Z,25.90
2018-05-07T10:26:08.559Z,25.92
2018-05-07T10:27:08.540Z,25.93
2018-05-07T10:28:08.524Z,25.98
2018-05-07T10:29:08.514Z,26.10
2018-05-07T10:30:08.489Z,26.16
2018-05-07T10:31:08.470Z,26.15
2018-05-07T10:32:08.445Z,26.05
2018-05-07T10:33:08.429Z,26.07
2018-05-07T10:34:08.411Z,25.98
2018-05-07T10:35:08.386Z,26.05
2018-05-07T10:36:08.366Z,25.88
2018-05-07T10:37:08.344Z,25.95
2018-05-07T10:38:08.328Z,25.90
2018-05-07T10:39:08.305Z,25.89
2018-05-07T10:40:08.285Z,25.92
2018-05-07T10:41:08.265Z,25.95
2018-05-07T10:42:08.246Z,26.12
2018-05-07T10:43:08.232Z,26.31
2018-05-07T10:44:08.215Z,26.26
2018-05-07T10:45:08.185Z,26.46
2018-05-07T10:46:08.161Z,26.41
2018-05-07T10:47:08.148Z,26.43
2018-05-07T10:48:08.127Z,26.42
2018-05-07T10:49:08.205Z,26.24
2018-05-07T10:50:08.091Z,26.23
2018-05-07T10:51:08.085Z,26.27
2018-05-07T10:52:08.055Z,26.23
2018-05-07T10:53:08.029Z,26.23
2018-05-07T10:54:08.013Z,26.51
2018-05-07T10:55:08.000Z,26.61
2018-05-07T10:56:08.027Z,26.65
2018-05-07T10:57:07.952Z,26.67
2018-05-07T10:58:07.929Z,26.61
2018-05-07T10:59:07.917Z,26.65
2018-05-07T11:00:07.913Z,26.73
2018-05-07T11:01:07.874Z,26.71
2018-05-07T11:02:07.874Z,26.78
2018-05-07T11:03:07.845Z,26.82
2018-05-07T11:04:07.823Z,26.82
2018-05-07T11:05:07.795Z,26.85
2018-05-07T11:06:07.770Z,26.97
2018-05-07T11:07:07.795Z,26.88
2018-05-07T11:08:07.753Z,26.89
2018-05-07T11:09:07.719Z,26.98
2018-05-07T11:10:07.696Z,26.94
2018-05-07T11:11:07.675Z,27.00
2018-05-07T11:12:07.659Z,26.90
2018-05-07T11:13:07.644Z,26.97
2018-05-07T11:14:07.623Z,27.08
2018-05-07T11:15:07.611Z,27.13
2018-05-07T11:16:07.664Z,27.10
2018-05-07T11:17:07.563Z,26.90
2018-05-07T11:18:07.548Z,26.98
2018-05-07T11:19:07.522Z,27.03
2018-05-07T11:20:07.513Z,27.16
2018-05-07T11:21:07.489Z,27.20
2018-05-07T11:22:07.474Z,27.30
2018-05-07T11:23:07.451Z,27.41
2018-05-07T11:24:07.429Z,27.54
2018-05-07T11:25:07.418Z,27.98
2018-05-07T11:26:07.407Z,28.66
2018-05-07T11:27:07.378Z,29.15
2018-05-07T11:28:07.356Z,29.78
2018-05-07T11:29:07.337Z,30.03
2018-05-07T11:30:07.315Z,29.96
2018-05-07T11:31:07.366Z,30.28
2018-05-07T11:32:07.279Z,30.90
2018-05-07T11:33:07.269Z,30.95
2018-05-07T11:34:07.247Z,31.45
2018-05-07T11:35:07.236Z,30.97
2018-05-07T11:36:07.219Z,31.54
2018-05-07T11:37:07.200Z,31.60
2018-05-07T11:38:07.169Z,31.44
2018-05-07T11:39:07.240Z,30.83
2018-05-07T11:40:07.156Z,31.20
2018-05-07T11:41:07.123Z,31.46
2018-05-07T11:42:07.107Z,31.38
2018-05-07T11:43:07.093Z,31.52
2018-05-07T11:44:07.123Z,31.75
2018-05-07T11:45:07.064Z,31.94
2018-05-07T11:46:08.959Z,31.99
2018-05-07T11:47:07.030Z,31.54
2018-05-07T11:48:07.023Z,31.66
2018-05-07T11:49:06.997Z,31.38
2018-05-07T11:50:06.978Z,31.44
2018-05-07T11:51:06.963Z,31.75
2018-05-07T11:52:06.956Z,31.42
2018-05-07T11:53:06.952Z,31.44
2018-05-07T11:54:06.946Z,31.37
2018-05-07T11:55:06.903Z,31.14
2018-05-07T11:56:06.953Z,31.27
2018-05-07T11:57:06.940Z,31.05
2018-05-07T11:58:06.918Z,31.46
2018-05-07T11:59:06.933Z,31.64
2018-05-07T12:00:06.832Z,31.61
2018-05-07T12:01:06.818Z,31.26
2018-05-07T12:02:06.853Z,31.75
2018-05-07T12:03:06.807Z,32.32
2018-05-07T12:04:06.780Z,32.48
2018-05-07T12:05:06.763Z,31.66
2018-05-07T12:06:06.753Z,31.42
2018-05-07T12:07:06.742Z,31.59
2018-05-07T12:08:06.735Z,32.21
2018-05-07T12:09:06.773Z,31.57
2018-05-07T12:10:06.692Z,30.68
2018-05-07T12:11:06.682Z,30.51
2018-05-07T12:12:06.674Z,30.77
2018-05-07T12:13:06.651Z,31.20
2018-05-07T12:14:06.693Z,31.99
2018-05-07T12:15:06.625Z,32.42
2018-05-07T12:16:06.676Z,32.43
2018-05-07T12:17:06.604Z,32.27
2018-05-07T12:18:06.597Z,32.55
2018-05-07T12:19:06.585Z,33.14
2018-05-07T12:20:06.569Z,33.47
2018-05-07T12:21:06.552Z,32.75
2018-05-07T12:22:06.534Z,32.83
2018-05-07T12:23:06.566Z,33.01
2018-05-07T12:24:06.515Z,32.90
2018-05-07T12:25:08.467Z,33.03
2018-05-07T12:26:06.496Z,33.35
2018-05-07T12:27:06.480Z,33.47
2018-05-07T12:28:06.474Z,33.76
2018-05-07T12:29:06.460Z,33.19
2018-05-07T12:30:06.454Z,33.03
2018-05-07T12:31:06.495Z,32.99
2018-05-07T12:32:06.426Z,33.19
2018-05-07T12:33:06.408Z,33.19
2018-05-07T12:34:06.413Z,32.91
2018-05-07T12:35:06.454Z,32.91
2018-05-07T12:36:06.377Z,32.79
2018-05-07T12:37:06.362Z,33.54
2018-05-07T12:38:06.354Z,33.92
2018-05-07T12:39:06.347Z,34.11
2018-05-07T12:40:06.355Z,33.45
2018-05-07T12:41:06.322Z,33.14
2018-05-07T12:42:06.302Z,33.54
2018-05-07T12:43:06.296Z,33.66
2018-05-07T12:44:06.303Z,34.18
2018-05-07T12:45:06.341Z,34.25
2018-05-07T12:46:06.301Z,34.56
2018-05-07T12:47:08.163Z,34.72
2018-05-07T12:48:06.250Z,34.92
2018-05-07T12:49:06.236Z,34.57
2018-05-07T12:50:06.225Z,33.73
2018-05-07T12:51:06.217Z,33.64
2018-05-07T12:52:06.207Z,33.51